Time;durP1;ratioP1;P1;durP2;ratioP2;P2;SDS_P1;SDS_P2;PMS_P1;PMS_P2;Temp;Humidity;BMP_temperature;BMP_pressure;BME280_temperature;BME280_humidity;BME280_pressure;Samples;Min_cycle;Max_cycle;Signal;HPM_P1;HPM_P2
2022/01/01 00:00:43;;;;;;;45.92;18.55;;;;;;;;;;5077164;28;20044;-92
2022/01/01 00:03:09;;;;;;;46.03;20.23;;;;;;;;;;5095094;28;20085;-90
2022/01/01 00:05:35;;;;;;;46.33;20.10;;;;;;;;;;5093875;28;20497;-90
2022/01/01 00:08:03;;;;;;;43.58;20.58;;;;;;;;;;5095315;28;20044;-90
2022/01/01 00:10:30;;;;;;;48.17;21.88;;;;;;;;;;5077309;28;20048;-90
2022/01/01 00:12:56;;;;;;;51.47;23.77;;;;;;;;;;5093645;28;20057;-90
2022/01/01 00:15:22;;;;;;;51.10;22.75;;;;;;;;;;5095006;28;20032;-91
2022/01/01 00:17:48;;;;;;;55.55;25.08;;;;;;;;;;5093638;28;20048;-90
2022/01/01 00:20:15;;;;;;;46.47;23.90;;;;;;;;;;5094633;28;20040;-92
2022/01/01 00:22:41;;;;;;;49.83;21.98;;;;;;;;;;5093454;28;20051;-90
2022/01/01 00:25:08;;;;;;;49.25;22.15;;;;;;;;;;5093443;28;20052;-89
2022/01/01 00:27:34;;;;;;;50.17;21.35;;;;;;;;;;5093318;28;20047;-91
2022/01/01 00:30:00;;;;;;;60.40;21.70;;;;;;;;;;5093094;28;20144;-90
2022/01/01 00:32:26;;;;;;;50.35;21.00;;;;;;;;;;5094574;28;20494;-91
2022/01/01 00:34:52;;;;;;;47.70;20.25;;;;;;;;;;5093419;28;20066;-92
2022/01/01 00:37:18;;;;;;;41.17;20.00;;;;;;;;;;5094657;28;20040;-91
2022/01/01 00:39:44;;;;;;;50.97;21.52;;;;;;;;;;5093079;28;20048;-91
2022/01/01 00:42:10;;;;;;;48.03;20.63;;;;;;;;;;5094650;28;20437;-91
2022/01/01 00:44:36;;;;;;;47.50;20.33;;;;;;;;;;5093101;28;20468;-92
2022/01/01 00:47:03;;;;;;;51.78;21.90;;;;;;;;;;5094398;28;20164;-92
2022/01/01 00:49:29;;;;;;;47.53;22.27;;;;;;;;;;5092722;28;20089;-91
2022/01/01 00:51:55;;;;;;;51.53;20.90;;;;;;;;;;5093278;28;20485;-90
2022/01/01 00:54:21;;;;;;;55.05;22.65;;;;;;;;;;5092858;28;20040;-92
2022/01/01 00:56:47;;;;;;;51.20;22.80;;;;;;;;;;5093096;28;20361;-92
2022/01/01 00:59:15;;;;;;;55.13;24.02;;;;;;;;;;5094290;28;20406;-92
2022/01/01 01:01:41;;;;;;;57.45;24.73;;;;;;;;;;5076093;28;20129;-89
2022/01/01 01:04:07;;;;;;;57.25;21.55;;;;;;;;;;5092654;28;20040;-90
2022/01/01 01:06:33;;;;;;;45.05;21.00;;;;;;;;;;5094025;28;20043;-91
2022/01/01 01:09:00;;;;;;;48.47;20.60;;;;;;;;;;5075393;28;20040;-89
2022/01/01 01:11:27;;;;;;;47.35;18.73;;;;;;;;;;5092930;28;20044;-91
2022/01/01 01:13:58;;;;;;;44.05;18.77;;;;;;;;;;5092543;28;20131;-90
2022/01/01 01:16:25;;;;;;;43.88;17.33;;;;;;;;;;5093592;28;20048;-92
2022/01/01 01:18:53;;;;;;;45.30;17.80;;;;;;;;;;5092822;28;20473;-92
2022/01/01 01:21:20;;;;;;;40.38;15.27;;;;;;;;;;5092702;28;20048;-91
2022/01/01 01:23:47;;;;;;;42.78;18.00;;;;;;;;;;5093348;28;20059;-90
2022/01/01 01:26:13;;;;;;;44.63;16.55;;;;;;;;;;5095384;28;20203;-91
2022/01/01 01:28:46;;;;;;;39.35;15.00;;;;;;;;;;5095063;28;20036;-93
2022/01/01 01:31:12;;;;;;;49.13;17.02;;;;;;;;;;5094327;28;20040;-93
2022/01/01 01:33:38;;;;;;;49.63;17.05;;;;;;;;;;5094467;28;20040;-91
2022/01/01 01:36:04;;;;;;;46.00;16.85;;;;;;;;;;5094837;28;20073;-92
2022/01/01 01:38:36;;;;;;;47.25;17.67;;;;;;;;;;5094812;28;20032;-93
2022/01/01 01:41:02;;;;;;;53.60;17.33;;;;;;;;;;5092278;28;20055;-91
2022/01/01 01:43:28;;;;;;;42.67;16.50;;;;;;;;;;5092701;28;20043;-91
2022/01/01 01:45:54;;;;;;;44.13;18.63;;;;;;;;;;5092319;28;20051;-91
2022/01/01 01:48:20;;;;;;;51.97;18.00;;;;;;;;;;5093540;28;20079;-91
2022/01/01 01:50:46;;;;;;;53.88;19.75;;;;;;;;;;5092420;28;20028;-93
2022/01/01 01:53:12;;;;;;;57.65;21.42;;;;;;;;;;5093219;28;20491;-91
2022/01/01 01:55:39;;;;;;;55.00;22.75;;;;;;;;;;5093372;28;20036;-91
2022/01/01 01:58:05;;;;;;;53.90;24.25;;;;;;;;;;5092239;28;20563;-89
2022/01/01 02:03:15;;;;;;;61.63;26.55;;;;;;;;;;5093496;28;20048;-91
2022/01/01 02:05:42;;;;;;;53.85;26.63;;;;;;;;;;5093778;28;20036;-90
2022/01/01 02:08:10;;;;;;;68.07;28.77;;;;;;;;;;5092056;28;20089;-91
2022/01/01 02:10:36;;;;;;;56.97;29.35;;;;;;;;;;5092058;28;20115;-89
2022/01/01 02:13:14;;;;;;;68.53;29.08;;;;;;;;;;5093193;28;20475;-90
2022/01/01 02:18:09;;;;;;;78.88;33.30;;;;;;;;;;5093421;28;20083;-90
2022/01/01 02:20:34;;;;;;;64.53;31.73;;;;;;;;;;5093082;28;20040;-92
2022/01/01 02:23:01;;;;;;;68.30;33.40;;;;;;;;;;5092610;28;20047;-91
2022/01/01 02:25:28;;;;;;;73.25;33.08;;;;;;;;;;5091811;28;20052;-90
2022/01/01 02:27:54;;;;;;;72.70;33.58;;;;;;;;;;5093485;28;20119;-89
2022/01/01 02:30:20;;;;;;;81.40;35.08;;;;;;;;;;5093763;28;20129;-90
2022/01/01 02:32:46;;;;;;;81.28;35.53;;;;;;;;;;5093127;28;20503;-91
2022/01/01 02:35:14;;;;;;;75.50;34.90;;;;;;;;;;5091372;28;20043;-90
2022/01/01 02:37:40;;;;;;;72.50;36.17;;;;;;;;;;5091640;28;20048;-89
2022/01/01 02:40:07;;;;;;;68.18;34.33;;;;;;;;;;5093090;28;20093;-90
2022/01/01 02:42:33;;;;;;;75.07;34.58;;;;;;;;;;5093129;28;20127;-90
2022/01/01 02:45:01;;;;;;;71.22;34.95;;;;;;;;;;5092829;28;20043;-89
2022/01/01 02:47:28;;;;;;;77.03;33.90;;;;;;;;;;5091836;28;20522;-91
2022/01/01 02:49:54;;;;;;;70.95;33.88;;;;;;;;;;5092799;28;20376;-90
2022/01/01 02:52:19;;;;;;;69.43;33.35;;;;;;;;;;5092893;28;20096;-92
2022/01/01 02:54:45;;;;;;;70.05;34.80;;;;;;;;;;5095373;28;20044;-91
2022/01/01 02:57:11;;;;;;;74.38;32.67;;;;;;;;;;5095721;28;20097;-92
2022/01/01 02:59:37;;;;;;;74.45;33.22;;;;;;;;;;5095602;28;20051;-91
2022/01/01 03:02:03;;;;;;;74.65;33.60;;;;;;;;;;5097421;28;20048;-91
2022/01/01 03:04:29;;;;;;;75.45;31.77;;;;;;;;;;5095593;28;20169;-90
2022/01/01 03:06:56;;;;;;;65.60;32.45;;;;;;;;;;5095859;28;20123;-92
2022/01/01 03:09:34;;;;;;;70.90;33.00;;;;;;;;;;5096767;28;20418;-92
2022/01/01 03:12:00;;;;;;;78.22;32.08;;;;;;;;;;5096843;28;20086;-90
2022/01/01 03:14:26;;;;;;;71.18;32.28;;;;;;;;;;5097579;28;20113;-90
2022/01/01 03:16:52;;;;;;;68.10;31.77;;;;;;;;;;5097227;28;20082;-89
2022/01/01 03:19:18;;;;;;;69.97;31.77;;;;;;;;;;5097562;28;20040;-91
2022/01/01 03:21:44;;;;;;;73.00;34.25;;;;;;;;;;5096378;28;20054;-88
2022/01/01 03:24:10;;;;;;;71.53;33.45;;;;;;;;;;5096781;28;20040;-90
2022/01/01 03:26:36;;;;;;;67.90;33.50;;;;;;;;;;5096751;28;20398;-89
2022/01/01 03:29:02;;;;;;;73.95;32.03;;;;;;;;;;5096415;28;20093;-90
2022/01/01 03:31:28;;;;;;;70.22;33.05;;;;;;;;;;5097984;28;20032;-90
2022/01/01 03:33:54;;;;;;;76.53;34.47;;;;;;;;;;5097547;28;20099;-91
2022/01/01 03:36:20;;;;;;;67.30;34.45;;;;;;;;;;5095877;28;20060;-90
2022/01/01 03:38:46;;;;;;;76.75;38.08;;;;;;;;;;5096811;28;20124;-90
2022/01/01 03:41:12;;;;;;;74.25;35.08;;;;;;;;;;5095150;28;20052;-90
2022/01/01 03:43:38;;;;;;;78.93;37.08;;;;;;;;;;5096049;28;20169;-92
2022/01/01 03:46:04;;;;;;;80.68;38.47;;;;;;;;;;5097063;28;20481;-91
2022/01/01 03:48:30;;;;;;;78.72;38.95;;;;;;;;;;5096532;28;20123;-91
2022/01/01 03:50:56;;;;;;;76.57;38.70;;;;;;;;;;5095327;28;20044;-90
2022/01/01 03:53:24;;;;;;;68.82;38.65;;;;;;;;;;5097194;28;20040;-91
2022/01/01 03:55:50;;;;;;;79.85;39.85;;;;;;;;;;5095141;28;20140;-92
2022/01/01 03:58:16;;;;;;;75.22;39.42;;;;;;;;;;5095750;28;20043;-92
2022/01/01 04:00:42;;;;;;;82.10;39.90;;;;;;;;;;5094559;28;20060;-90
2022/01/01 04:03:09;;;;;;;81.13;40.33;;;;;;;;;;5095003;28;20043;-91
2022/01/01 04:05:36;;;;;;;85.88;43.13;;;;;;;;;;5093707;28;20047;-91
2022/01/01 04:08:02;;;;;;;81.30;42.13;;;;;;;;;;5096193;28;20047;-91
2022/01/01 04:10:31;;;;;;;79.72;42.40;;;;;;;;;;5093930;28;20115;-92
2022/01/01 04:12:57;;;;;;;86.43;46.47;;;;;;;;;;5094112;28;20036;-92
2022/01/01 04:15:23;;;;;;;80.60;44.20;;;;;;;;;;5093697;28;20151;-88
2022/01/01 04:17:49;;;;;;;90.32;44.97;;;;;;;;;;5093767;28;20126;-90
2022/01/01 04:20:15;;;;;;;89.78;44.25;;;;;;;;;;5093705;28;20050;-90
2022/01/01 04:22:41;;;;;;;86.38;44.28;;;;;;;;;;5093505;28;20048;-89
2022/01/01 04:25:07;;;;;;;102.20;46.30;;;;;;;;;;5094469;28;20121;-89
2022/01/01 04:27:33;;;;;;;80.57;43.08;;;;;;;;;;5095344;28;20493;-90
2022/01/01 04:29:59;;;;;;;86.80;46.42;;;;;;;;;;5093961;28;20075;-90
2022/01/01 04:32:25;;;;;;;89.47;46.83;;;;;;;;;;5094247;28;20113;-89
2022/01/01 04:34:51;;;;;;;86.05;44.95;;;;;;;;;;5094940;28;20040;-90
2022/01/01 04:37:19;;;;;;;88.22;46.97;;;;;;;;;;5095278;28;20499;-89
2022/01/01 04:39:45;;;;;;;87.93;45.15;;;;;;;;;;5093669;28;20052;-89
2022/01/01 04:42:11;;;;;;;83.60;44.72;;;;;;;;;;5093152;28;20040;-91
2022/01/01 04:44:37;;;;;;;89.82;45.35;;;;;;;;;;5093205;28;20506;-91
2022/01/01 04:47:03;;;;;;;88.45;45.67;;;;;;;;;;5093259;28;20128;-92
2022/01/01 04:49:29;;;;;;;83.28;44.70;;;;;;;;;;5094161;28;20046;-91
2022/01/01 04:51:55;;;;;;;80.55;43.05;;;;;;;;;;5095804;28;20032;-91
2022/01/01 04:54:21;;;;;;;83.25;43.72;;;;;;;;;;5094873;28;20040;-90
2022/01/01 04:56:48;;;;;;;73.63;41.72;;;;;;;;;;5095517;28;20044;-91
2022/01/01 04:59:15;;;;;;;82.82;43.95;;;;;;;;;;5094407;28;20044;-91
2022/01/01 05:01:41;;;;;;;83.93;43.03;;;;;;;;;;5095316;28;20044;-89
2022/01/01 05:04:08;;;;;;;90.65;45.92;;;;;;;;;;5094638;28;20471;-91
2022/01/01 05:06:34;;;;;;;90.43;47.85;;;;;;;;;;5094264;28;20438;-91
2022/01/01 05:09:01;;;;;;;92.32;47.33;;;;;;;;;;5096990;28;20043;-90
2022/01/01 05:11:27;;;;;;;97.47;47.45;;;;;;;;;;5095417;28;20074;-90
2022/01/01 05:13:53;;;;;;;89.22;48.03;;;;;;;;;;5095413;28;20040;-90
2022/01/01 05:16:20;;;;;;;90.25;49.75;;;;;;;;;;5094368;28;20036;-91
2022/01/01 05:18:46;;;;;;;91.82;50.45;;;;;;;;;;5096151;28;20116;-91
2022/01/01 05:21:12;;;;;;;95.30;47.28;;;;;;;;;;5095045;28;20032;-90
2022/01/01 05:23:38;;;;;;;100.95;50.83;;;;;;;;;;5096945;28;20040;-91
2022/01/01 05:26:04;;;;;;;96.53;49.63;;;;;;;;;;5094240;28;20048;-90
2022/01/01 05:28:30;;;;;;;89.88;48.30;;;;;;;;;;5093958;28;20395;-90
2022/01/01 05:30:56;;;;;;;91.22;49.53;;;;;;;;;;5094706;28;20051;-91
2022/01/01 05:33:22;;;;;;;101.82;51.08;;;;;;;;;;5093178;28;20040;-92
2022/01/01 05:35:48;;;;;;;98.57;49.88;;;;;;;;;;5095369;28;20047;-91
2022/01/01 05:38:17;;;;;;;92.57;49.42;;;;;;;;;;5095648;28;20079;-92
2022/01/01 05:40:43;;;;;;;97.22;50.97;;;;;;;;;;5095254;28;20138;-92
2022/01/01 05:43:13;;;;;;;97.72;51.50;;;;;;;;;;5094370;28;20127;-91
2022/01/01 05:45:40;;;;;;;105.38;49.75;;;;;;;;;;5093420;28;20132;-91
2022/01/01 05:48:06;;;;;;;107.40;50.78;;;;;;;;;;5092511;28;20124;-91
2022/01/01 05:50:31;;;;;;;106.88;51.80;;;;;;;;;;5094661;28;20110;-90
2022/01/01 05:52:57;;;;;;;93.20;46.88;;;;;;;;;;5094057;28;20043;-91
2022/01/01 05:55:23;;;;;;;94.57;46.55;;;;;;;;;;5094291;28;20395;-91
2022/01/01 05:57:49;;;;;;;94.25;47.47;;;;;;;;;;5098907;28;20056;-92
2022/01/01 06:00:16;;;;;;;95.55;48.33;;;;;;;;;;5092395;28;20043;-91
2022/01/01 06:02:42;;;;;;;93.80;47.08;;;;;;;;;;5095702;28;20032;-91
2022/01/01 06:05:08;;;;;;;91.07;45.95;;;;;;;;;;5094570;28;20046;-91
2022/01/01 06:07:34;;;;;;;91.68;45.13;;;;;;;;;;5093325;28;20093;-90
2022/01/01 06:10:00;;;;;;;84.70;43.22;;;;;;;;;;5095749;28;20429;-90
2022/01/01 06:12:26;;;;;;;91.65;43.97;;;;;;;;;;5093431;28;20044;-90
2022/01/01 06:14:53;;;;;;;83.88;40.47;;;;;;;;;;5095136;28;20055;-91
2022/01/01 06:17:19;;;;;;;82.30;38.83;;;;;;;;;;5093971;28;20483;-91
2022/01/01 06:19:45;;;;;;;82.68;38.63;;;;;;;;;;5091841;28;20120;-88
2022/01/01 06:22:11;;;;;;;83.55;37.10;;;;;;;;;;5093225;28;20087;-91
2022/01/01 06:24:37;;;;;;;75.28;36.55;;;;;;;;;;5092996;28;20499;-91
2022/01/01 06:27:03;;;;;;;76.90;34.60;;;;;;;;;;5095432;28;20052;-91
2022/01/01 06:29:29;;;;;;;82.57;34.53;;;;;;;;;;5096987;28;20130;-92
2022/01/01 06:31:55;;;;;;;67.80;30.70;;;;;;;;;;5097282;28;20064;-91
2022/01/01 06:34:21;;;;;;;73.65;27.50;;;;;;;;;;5098145;28;20043;-90
2022/01/01 06:36:47;;;;;;;70.60;29.35;;;;;;;;;;5097938;28;20054;-91
2022/01/01 06:39:13;;;;;;;63.83;25.42;;;;;;;;;;5096775;28;20036;-90
2022/01/01 06:41:39;;;;;;;68.05;28.00;;;;;;;;;;5098179;28;20055;-92
2022/01/01 06:44:05;;;;;;;57.58;26.67;;;;;;;;;;5080089;28;20093;-91
2022/01/01 06:46:31;;;;;;;70.72;27.75;;;;;;;;;;5097098;28;20070;-91
2022/01/01 06:48:57;;;;;;;75.60;27.67;;;;;;;;;;5097512;28;20173;-92
2022/01/01 06:51:23;;;;;;;75.90;27.23;;;;;;;;;;5097042;28;20487;-93
2022/01/01 06:53:49;;;;;;;74.03;27.75;;;;;;;;;;5098036;28;20399;-90
2022/01/01 06:56:15;;;;;;;80.20;27.80;;;;;;;;;;5096369;28;20465;-90
2022/01/01 06:58:41;;;;;;;68.93;26.17;;;;;;;;;;5096464;28;20101;-90
2022/01/01 07:01:07;;;;;;;72.03;27.17;;;;;;;;;;5098210;28;20072;-90
2022/01/01 07:03:33;;;;;;;72.88;26.50;;;;;;;;;;5096792;28;20398;-90
2022/01/01 07:05:59;;;;;;;71.90;25.83;;;;;;;;;;5096305;28;20127;-91
2022/01/01 07:08:25;;;;;;;67.30;26.60;;;;;;;;;;5096485;28;20364;-91
2022/01/01 07:10:51;;;;;;;67.88;26.65;;;;;;;;;;5095139;28;20047;-90
2022/01/01 07:13:17;;;;;;;66.50;26.67;;;;;;;;;;5096438;28;20044;-91
2022/01/01 07:15:43;;;;;;;80.28;26.30;;;;;;;;;;5095364;28;20048;-90
2022/01/01 07:18:10;;;;;;;79.50;27.10;;;;;;;;;;5095349;28;20059;-91
2022/01/01 07:20:36;;;;;;;64.38;24.52;;;;;;;;;;5097622;28;20517;-90
2022/01/01 07:23:03;;;;;;;67.28;25.63;;;;;;;;;;5096988;28;20121;-91
2022/01/01 07:25:29;;;;;;;58.72;25.25;;;;;;;;;;5096436;28;20044;-90
2022/01/01 07:27:55;;;;;;;56.38;23.38;;;;;;;;;;5096959;28;20052;-90
2022/01/01 07:30:21;;;;;;;64.00;23.63;;;;;;;;;;5096300;28;20028;-91
2022/01/01 07:32:48;;;;;;;66.45;23.88;;;;;;;;;;5098455;28;20137;-89
2022/01/01 07:35:14;;;;;;;59.10;23.15;;;;;;;;;;5099463;28;20040;-92
2022/01/01 07:37:40;;;;;;;59.15;22.80;;;;;;;;;;5098773;28;20048;-91
2022/01/01 07:40:09;;;;;;;61.03;22.70;;;;;;;;;;5097417;28;20462;-90
2022/01/01 07:42:35;;;;;;;54.17;21.35;;;;;;;;;;5097171;28;20052;-91
2022/01/01 07:45:01;;;;;;;56.00;21.17;;;;;;;;;;5099799;28;20036;-91
2022/01/01 07:47:27;;;;;;;56.05;21.67;;;;;;;;;;5090451;28;20048;-88
2022/01/01 07:49:54;;;;;;;55.63;21.42;;;;;;;;;;5088769;28;20093;-91
2022/01/01 07:52:20;;;;;;;60.47;21.15;;;;;;;;;;5080295;28;20056;-92
2022/01/01 07:54:46;;;;;;;57.53;21.92;;;;;;;;;;5083327;28;20048;-90
2022/01/01 07:57:12;;;;;;;55.15;23.10;;;;;;;;;;5086854;28;20090;-90
2022/01/01 07:59:38;;;;;;;51.13;19.95;;;;;;;;;;5085893;28;20065;-90
2022/01/01 08:02:04;;;;;;;50.60;20.13;;;;;;;;;;5081747;28;20087;-90
2022/01/01 08:04:30;;;;;;;50.70;18.65;;;;;;;;;;5087215;28;20484;-89
2022/01/01 08:06:56;;;;;;;53.20;20.38;;;;;;;;;;5080273;28;20041;-91
2022/01/01 08:09:22;;;;;;;49.15;19.95;;;;;;;;;;5077416;28;20181;-90
2022/01/01 08:11:50;;;;;;;62.95;22.70;;;;;;;;;;5090326;28;20040;-91
2022/01/01 08:14:16;;;;;;;45.08;20.33;;;;;;;;;;5084343;28;20395;-90
2022/01/01 08:16:55;;;;;;;49.05;19.40;;;;;;;;;;5084838;28;20067;-91
2022/01/01 08:19:21;;;;;;;53.58;21.33;;;;;;;;;;5082906;28;20040;-90
2022/01/01 08:21:47;;;;;;;58.70;23.05;;;;;;;;;;5086213;28;20388;-89
2022/01/01 08:24:13;;;;;;;52.47;23.13;;;;;;;;;;5089324;28;20055;-91
2022/01/01 08:26:39;;;;;;;59.70;20.55;;;;;;;;;;5073005;28;20516;-89
2022/01/01 08:29:05;;;;;;;53.33;22.73;;;;;;;;;;5085006;28;20126;-90
2022/01/01 08:31:31;;;;;;;45.95;21.55;;;;;;;;;;5088618;28;20037;-89
2022/01/01 08:33:57;;;;;;;68.00;22.98;;;;;;;;;;5079440;28;20055;-91
2022/01/01 08:36:23;;;;;;;51.33;21.20;;;;;;;;;;5082699;28;20062;-90
2022/01/01 08:38:49;;;;;;;54.75;22.63;;;;;;;;;;5088499;28;20040;-93
2022/01/01 08:41:15;;;;;;;52.53;22.83;;;;;;;;;;5095328;28;20063;-93
2022/01/01 08:43:41;;;;;;;54.42;22.45;;;;;;;;;;5095195;28;20051;-91
2022/01/01 08:46:07;;;;;;;54.30;24.25;;;;;;;;;;5094325;28;20119;-92
2022/01/01 08:48:33;;;;;;;51.60;24.23;;;;;;;;;;5095104;28;20128;-89
2022/01/01 08:50:59;;;;;;;65.03;25.00;;;;;;;;;;5093765;28;20051;-88
2022/01/01 08:53:25;;;;;;;56.97;26.00;;;;;;;;;;5095460;28;20040;-92
2022/01/01 08:55:52;;;;;;;55.75;26.23;;;;;;;;;;5077242;28;20056;-91
2022/01/01 08:58:18;;;;;;;53.55;25.88;;;;;;;;;;5093500;28;20048;-92
2022/01/01 09:00:44;;;;;;;60.10;26.35;;;;;;;;;;5095317;28;20048;-93
2022/01/01 09:03:10;;;;;;;61.67;26.35;;;;;;;;;;5095285;28;20040;-92
2022/01/01 09:05:36;;;;;;;49.33;25.27;;;;;;;;;;5095277;28;20450;-92
2022/01/01 09:08:02;;;;;;;67.78;27.77;;;;;;;;;;5096907;28;20071;-91
2022/01/01 09:10:28;;;;;;;63.33;28.00;;;;;;;;;;5094467;28;20044;-92
2022/01/01 09:12:54;;;;;;;59.78;26.42;;;;;;;;;;5094529;28;20040;-91
2022/01/01 09:15:20;;;;;;;62.33;27.02;;;;;;;;;;5093574;28;20096;-91
2022/01/01 09:17:46;;;;;;;58.80;27.10;;;;;;;;;;5094507;28;20115;-91
2022/01/01 09:20:12;;;;;;;57.13;27.95;;;;;;;;;;5095979;28;20051;-90
2022/01/01 09:22:38;;;;;;;51.40;26.95;;;;;;;;;;5097058;28;20097;-88
2022/01/01 09:25:04;;;;;;;58.15;27.10;;;;;;;;;;5096066;28;20060;-91
2022/01/01 09:27:30;;;;;;;51.42;26.23;;;;;;;;;;5093929;28;20084;-90
2022/01/01 09:29:57;;;;;;;55.75;27.13;;;;;;;;;;5093496;28;20510;-90
2022/01/01 09:32:23;;;;;;;47.00;25.00;;;;;;;;;;5093984;28;20036;-93
2022/01/01 09:34:49;;;;;;;50.63;25.40;;;;;;;;;;5093917;28;20044;-92
2022/01/01 09:37:15;;;;;;;49.80;25.85;;;;;;;;;;5095875;28;20046;-93
2022/01/01 09:39:41;;;;;;;51.50;25.10;;;;;;;;;;5099423;28;20093;-90
2022/01/01 09:42:08;;;;;;;55.50;26.38;;;;;;;;;;5096107;28;20127;-90
2022/01/01 09:44:36;;;;;;;51.72;24.40;;;;;;;;;;5096783;28;20048;-90
2022/01/01 09:47:02;;;;;;;51.75;24.33;;;;;;;;;;5078425;28;20044;-92
2022/01/01 09:49:28;;;;;;;50.47;26.17;;;;;;;;;;5095195;28;20044;-91
2022/01/01 09:51:54;;;;;;;48.22;25.85;;;;;;;;;;5096875;28;20043;-89
2022/01/01 09:54:20;;;;;;;46.67;25.48;;;;;;;;;;5095735;28;20035;-90
2022/01/01 09:56:46;;;;;;;44.63;23.75;;;;;;;;;;5098008;28;20044;-92
2022/01/01 09:59:15;;;;;;;48.38;24.13;;;;;;;;;;5095938;28;20055;-91
2022/01/01 10:01:41;;;;;;;50.25;25.25;;;;;;;;;;5094583;28;20048;-91
2022/01/01 10:04:14;;;;;;;41.22;24.58;;;;;;;;;;5095972;28;20079;-91
2022/01/01 10:06:41;;;;;;;43.63;23.92;;;;;;;;;;5078766;28;20215;-90
2022/01/01 10:09:09;;;;;;;42.65;24.35;;;;;;;;;;5097650;28;20043;-89
2022/01/01 10:11:35;;;;;;;53.00;23.33;;;;;;;;;;5095636;28;20036;-90
2022/01/01 10:14:05;;;;;;;40.85;22.80;;;;;;;;;;5095328;28;20072;-91
2022/01/01 10:16:31;;;;;;;42.47;22.95;;;;;;;;;;5095310;28;20502;-90
2022/01/01 10:18:57;;;;;;;40.78;22.30;;;;;;;;;;5096881;28;20040;-91
2022/01/01 10:21:26;;;;;;;40.75;22.75;;;;;;;;;;5097034;28;20089;-90
2022/01/01 10:23:54;;;;;;;42.33;22.15;;;;;;;;;;5096687;28;20060;-91
2022/01/01 10:29:17;;;;;;;39.88;22.02;;;;;;;;;;5093090;28;20520;-89
2022/01/01 10:31:58;;;;;;;39.33;21.38;;;;;;;;;;5091625;28;20432;-90
2022/01/01 10:34:32;;;;;;;37.13;21.80;;;;;;;;;;5092412;28;20388;-86
2022/01/01 10:36:59;;;;;;;38.75;21.17;;;;;;;;;;5091747;28;20093;-91
2022/01/01 10:39:25;;;;;;;36.05;20.60;;;;;;;;;;5091727;28;20051;-91
2022/01/01 10:41:54;;;;;;;33.25;19.52;;;;;;;;;;5093130;28;20492;-93
2022/01/01 10:44:38;;;;;;;42.63;19.23;;;;;;;;;;5091418;28;20101;-92
2022/01/01 10:47:06;;;;;;;35.22;18.23;;;;;;;;;;5091681;28;20569;-91
2022/01/01 10:52:14;;;;;;;35.05;18.00;;;;;;;;;;5093058;28;20097;-92
2022/01/01 10:54:47;;;;;;;36.70;18.98;;;;;;;;;;5091592;28;20126;-90
2022/01/01 10:57:13;;;;;;;32.58;17.27;;;;;;;;;;5091957;28;20064;-91
2022/01/01 10:59:40;;;;;;;31.83;17.80;;;;;;;;;;5092743;28;20518;-91
2022/01/01 11:02:11;;;;;;;30.33;16.35;;;;;;;;;;5093018;28;20044;-91
2022/01/01 11:04:37;;;;;;;31.88;16.25;;;;;;;;;;5092637;28;20077;-92
2022/01/01 11:07:03;;;;;;;32.35;16.35;;;;;;;;;;5092804;28;20409;-92
2022/01/01 11:09:30;;;;;;;31.42;15.77;;;;;;;;;;5091170;28;20048;-89
2022/01/01 11:12:02;;;;;;;28.02;15.18;;;;;;;;;;5091483;28;20413;-91
2022/01/01 11:14:29;;;;;;;24.20;14.30;;;;;;;;;;5094124;28;20190;-91
2022/01/01 11:16:55;;;;;;;30.27;14.93;;;;;;;;;;5095171;28;20124;-91
2022/01/01 11:19:24;;;;;;;26.25;14.45;;;;;;;;;;5096300;28;20044;-90
2022/01/01 11:21:50;;;;;;;24.20;13.75;;;;;;;;;;5096285;28;20051;-92
2022/01/01 11:24:16;;;;;;;26.15;13.93;;;;;;;;;;5094707;28;20222;-91
2022/01/01 11:26:42;;;;;;;30.33;13.20;;;;;;;;;;5096142;28;20169;-93
2022/01/01 11:29:08;;;;;;;25.08;13.00;;;;;;;;;;5094772;28;20201;-89
2022/01/01 11:31:35;;;;;;;27.70;13.38;;;;;;;;;;5095833;28;20547;-91
2022/01/01 11:34:01;;;;;;;22.17;11.07;;;;;;;;;;5096144;28;20085;-91
2022/01/01 11:36:29;;;;;;;24.38;11.38;;;;;;;;;;5096024;28;20107;-91
2022/01/01 11:38:58;;;;;;;25.50;11.48;;;;;;;;;;5097474;28;20036;-91
2022/01/01 11:41:24;;;;;;;22.67;10.45;;;;;;;;;;5077743;28;20118;-90
2022/01/01 11:43:51;;;;;;;23.45;10.20;;;;;;;;;;5096160;28;20120;-91
2022/01/01 11:46:30;;;;;;;26.38;10.82;;;;;;;;;;5096068;28;20123;-90
2022/01/01 11:48:57;;;;;;;19.95;9.50;;;;;;;;;;5077997;28;20078;-91
2022/01/01 11:51:52;;;;;;;22.02;9.65;;;;;;;;;;5095136;28;20444;-92
2022/01/01 11:54:19;;;;;;;18.17;9.02;;;;;;;;;;5094960;28;20074;-91
2022/01/01 11:56:52;;;;;;;16.25;8.32;;;;;;;;;;5095575;28;20126;-91
2022/01/01 11:59:25;;;;;;;18.20;8.05;;;;;;;;;;5078020;28;20101;-91
2022/01/01 12:01:52;;;;;;;15.63;7.80;;;;;;;;;;5094836;28;20052;-93
2022/01/01 12:04:23;;;;;;;20.67;7.47;;;;;;;;;;5095481;28;20507;-92
2022/01/01 12:06:53;;;;;;;18.88;7.82;;;;;;;;;;5093902;28;20048;-91
2022/01/01 12:09:19;;;;;;;19.80;7.43;;;;;;;;;;5077265;28;20075;-91
2022/01/01 12:11:53;;;;;;;20.55;8.25;;;;;;;;;;5095207;28;20071;-92
2022/01/01 12:14:26;;;;;;;15.25;7.30;;;;;;;;;;5095081;28;20475;-91
2022/01/01 12:16:53;;;;;;;17.58;7.50;;;;;;;;;;5093882;28;20066;-91
2022/01/01 12:19:21;;;;;;;18.50;7.00;;;;;;;;;;5077259;28;20073;-91
2022/01/01 12:21:48;;;;;;;15.93;6.82;;;;;;;;;;5095248;28;20364;-91
2022/01/01 12:24:21;;;;;;;12.77;6.22;;;;;;;;;;5094524;28;20095;-89
2022/01/01 12:26:52;;;;;;;13.43;6.50;;;;;;;;;;5093456;28;20272;-92
2022/01/01 12:29:22;;;;;;;15.40;6.95;;;;;;;;;;5094073;28;20483;-90
2022/01/01 12:31:55;;;;;;;19.35;6.90;;;;;;;;;;5094901;28;20040;-91
2022/01/01 12:34:22;;;;;;;16.80;6.97;;;;;;;;;;5094952;28;20036;-91
2022/01/01 12:36:55;;;;;;;17.77;6.28;;;;;;;;;;5093410;28;20040;-90
2022/01/01 12:39:22;;;;;;;14.02;6.32;;;;;;;;;;5093469;28;20122;-90
2022/01/01 12:41:48;;;;;;;16.45;6.90;;;;;;;;;;5093179;28;20079;-90
2022/01/01 12:44:18;;;;;;;13.02;6.38;;;;;;;;;;5094515;28;20044;-90
2022/01/01 12:46:46;;;;;;;14.30;6.78;;;;;;;;;;5094378;28;20044;-91
2022/01/01 12:49:12;;;;;;;14.80;6.05;;;;;;;;;;5093369;28;20048;-91
2022/01/01 12:51:38;;;;;;;14.70;5.85;;;;;;;;;;5094392;28;20115;-92
2022/01/01 12:54:08;;;;;;;12.00;5.85;;;;;;;;;;5093102;28;20036;-91
2022/01/01 12:56:35;;;;;;;17.02;6.53;;;;;;;;;;5094801;28;20047;-91
2022/01/01 12:59:10;;;;;;;12.43;6.50;;;;;;;;;;5094689;28;20395;-91
2022/01/01 13:01:37;;;;;;;12.45;5.82;;;;;;;;;;5094088;28;20505;-92
2022/01/01 13:04:07;;;;;;;14.70;6.40;;;;;;;;;;5093450;28;20036;-90
2022/01/01 13:06:37;;;;;;;12.50;5.78;;;;;;;;;;5093983;28;20123;-90
2022/01/01 13:09:08;;;;;;;16.30;6.35;;;;;;;;;;5093893;28;20123;-89
2022/01/01 13:11:35;;;;;;;13.63;5.72;;;;;;;;;;5092971;28;20048;-92
2022/01/01 13:14:01;;;;;;;14.75;6.32;;;;;;;;;;5093860;28;20044;-92
2022/01/01 13:16:28;;;;;;;11.55;5.90;;;;;;;;;;5092833;28;20065;-92
2022/01/01 13:18:54;;;;;;;15.23;6.32;;;;;;;;;;5092902;28;20071;-91
2022/01/01 13:21:21;;;;;;;13.45;6.30;;;;;;;;;;5092314;28;20040;-91
2022/01/01 13:23:47;;;;;;;11.45;6.18;;;;;;;;;;5075562;28;20131;-91
2022/01/01 13:26:13;;;;;;;17.45;6.30;;;;;;;;;;5092644;28;20119;-92
2022/01/01 13:28:40;;;;;;;16.33;5.63;;;;;;;;;;5093816;28;20131;-89
2022/01/01 13:31:06;;;;;;;13.27;6.15;;;;;;;;;;5093613;28;20410;-91
2022/01/01 13:33:34;;;;;;;13.32;6.72;;;;;;;;;;5092620;28;20128;-89
2022/01/01 13:36:01;;;;;;;16.10;6.25;;;;;;;;;;5092075;28;20083;-90
2022/01/01 13:38:30;;;;;;;14.85;6.30;;;;;;;;;;5092687;28;20475;-91
2022/01/01 13:40:57;;;;;;;16.52;6.82;;;;;;;;;;5075194;28;20040;-91
2022/01/01 13:43:34;;;;;;;14.40;6.78;;;;;;;;;;5092106;28;20070;-89
2022/01/01 13:46:04;;;;;;;13.82;7.32;;;;;;;;;;5093366;28;20077;-92
2022/01/01 13:48:39;;;;;;;14.75;7.22;;;;;;;;;;5093449;28;20109;-92
2022/01/01 13:51:05;;;;;;;14.77;5.80;;;;;;;;;;5093365;28;20066;-92
2022/01/01 13:53:31;;;;;;;15.55;6.97;;;;;;;;;;5075529;28;20584;-90
2022/01/01 13:56:02;;;;;;;14.82;6.85;;;;;;;;;;5093360;28;20044;-90
2022/01/01 13:58:28;;;;;;;15.93;6.90;;;;;;;;;;5093666;28;20127;-93
2022/01/01 14:00:55;;;;;;;15.32;6.85;;;;;;;;;;5093164;28;20073;-92
2022/01/01 14:03:23;;;;;;;15.82;7.00;;;;;;;;;;5092062;28;20040;-89
2022/01/01 14:05:49;;;;;;;15.65;6.50;;;;;;;;;;5093611;28;20051;-92
2022/01/01 14:08:19;;;;;;;16.45;7.00;;;;;;;;;;5093055;28;20543;-89
2022/01/01 14:10:54;;;;;;;13.80;6.50;;;;;;;;;;5093397;28;20032;-91
2022/01/01 14:13:30;;;;;;;14.65;7.53;;;;;;;;;;5091678;28;20067;-91
2022/01/01 14:15:57;;;;;;;14.85;7.25;;;;;;;;;;5091881;28;20039;-91
2022/01/01 14:18:30;;;;;;;16.65;7.10;;;;;;;;;;5093309;28;20092;-90
2022/01/01 14:20:57;;;;;;;14.68;7.40;;;;;;;;;;5092889;28;20040;-92
2022/01/01 14:23:27;;;;;;;16.30;6.95;;;;;;;;;;5091387;28;20048;-90
2022/01/01 14:25:57;;;;;;;14.05;7.50;;;;;;;;;;5091894;28;20517;-91
2022/01/01 14:28:23;;;;;;;14.73;7.03;;;;;;;;;;5091570;28;20076;-93